This is the latest recevied weather packets stored in our database for station/object 9A7DI-13. If no packets are shown the sender has not sent any weather packets the latest 1 day(s).
| Time | Temp. | Humidity | Pressure | Rain* | Wind** | Luminosity | Snow |
|---|---|---|---|---|---|---|---|
| 1778108827 | 16.11° C | 81% | 1020.6 hPa | - | - | - | - |
| 1778108227 | 16.67° C | 80% | 1020.7 hPa | - | - | - | - |
| 1778106427 | 16.67° C | 80% | 1020.5 hPa | - | - | - | - |
| 1778105827 | 16.67° C | 79% | 1020.5 hPa | - | - | - | - |
| 1778075828 | 26.11° C | 37% | 1018.2 hPa | - | - | - | - |
| 1778074030 | 26.67° C | 35% | 1018.4 hPa | - | - | - | - |
| 1778065028 | 27.22° C | 36% | 1019.9 hPa | - | - | - | - |
| 1778063228 | 26.67° C | 37% | 1020.1 hPa | - | - | - | - |
| 1778062628 | 26.11° C | 36% | 1020.2 hPa | - | - | - | - |
| 1778062028 | 26.11° C | 37% | 1020.3 hPa | - | - | - | - |
| 1778061428 | 26.11° C | 35% | 1020.4 hPa | - | - | - | - |
| 1778060828 | 25° C | 39% | 1020.5 hPa | - | - | - | - |
| 1778060228 | 23.33° C | 41% | 1020.6 hPa | - | - | - | - |
| 1778059628 | 23.89° C | 39% | 1020.6 hPa | - | - | - | - |
| 1778059028 | 23.89° C | 40% | 1020.7 hPa | - | - | - | - |
| 1778058428 | 26.67° C | 36% | 1020.7 hPa | - | - | - | - |
| 1778057828 | 24.44° C | 38% | 1020.8 hPa | - | - | - | - |
| 1778057228 | 25° C | 37% | 1020.9 hPa | - | - | - | - |
| 1778056628 | 23.33° C | 40% | 1020.9 hPa | - | - | - | - |
| 1778056028 | 23.33° C | 39% | 1020.9 hPa | - | - | - | - |
* Rain since midnight (hover to see other rain measurements)
** Current wind speed in m/s (hover to see current wind gust speed)